Time;durP1;ratioP1;P1;durP2;ratioP2;P2;SDS_P1;SDS_P2;PMS_P1;PMS_P2;Temp;Humidity;BMP_temperature;BMP_pressure;BME280_temperature;BME280_humidity;BME280_pressure;Samples;Min_cycle;Max_cycle;Signal;HPM_P1;HPM_P2
2023/11/27 00:02:18;;;;;;;12.82;5.68;;;7.90;54.70;;;;;;7527717;23;20022;-69
2023/11/27 00:05:19;;;;;;;12.40;4.97;;;7.90;54.80;;;;;;7553282;23;20125;-69
2023/11/27 00:08:20;;;;;;;11.63;5.72;;;7.90;54.90;;;;;;7553919;23;20006;-70
2023/11/27 00:11:21;;;;;;;10.00;4.45;;;7.90;55.00;;;;;;7527007;23;20109;-69
2023/11/27 00:14:22;;;;;;;23.83;5.53;;;7.90;55.00;;;;;;7554013;23;20049;-69
2023/11/27 00:17:23;;;;;;;8.25;4.50;;;7.90;55.10;;;;;;7553293;23;20374;-68
2023/11/27 00:20:23;;;;;;;13.93;5.85;;;7.90;55.10;;;;;;7527251;23;20006;-68
2023/11/27 00:23:25;;;;;;;11.10;5.00;;;8.00;55.10;;;;;;7552902;23;20033;-69
2023/11/27 00:26:26;;;;;;;13.38;6.03;;;8.00;55.10;;;;;;7553161;23;20046;-69
2023/11/27 00:29:30;;;;;;;10.20;5.32;;;8.00;55.10;;;;;;7504567;23;20014;-68
2023/11/27 00:32:31;;;;;;;14.40;4.22;;;8.10;55.10;;;;;;7553454;23;20017;-68
2023/11/27 00:35:32;;;;;;;11.13;4.00;;;8.10;55.10;;;;;;7553308;23;20137;-69
2023/11/27 00:38:33;;;;;;;11.50;4.07;;;8.10;55.00;;;;;;7553113;23;20003;-69
2023/11/27 00:41:36;;;;;;;14.88;4.90;;;8.10;54.80;;;;;;7503991;23;20033;-69
2023/11/27 00:44:36;;;;;;;7.47;3.72;;;8.10;54.70;;;;;;7527019;23;20021;-68
2023/11/27 00:47:38;;;;;;;5.28;3.30;;;8.10;54.60;;;;;;7553010;23;20002;-69
2023/11/27 00:50:40;;;;;;;7.88;4.25;;;8.10;54.50;;;;;;7553310;23;20010;-68
2023/11/27 00:53:41;;;;;;;6.68;3.25;;;8.10;54.50;;;;;;7526658;23;20096;-68
2023/11/27 00:56:42;;;;;;;6.30;3.58;;;8.10;54.40;;;;;;7527225;23;20082;-70
2023/11/27 00:59:43;;;;;;;5.35;3.60;;;8.10;54.40;;;;;;7526152;23;20080;-68
2023/11/27 01:02:45;;;;;;;9.48;3.40;;;8.10;54.40;;;;;;7527139;23;20010;-68
2023/11/27 01:05:46;;;;;;;10.23;3.70;;;8.10;54.30;;;;;;7503213;23;20047;-68
2023/11/27 01:08:47;;;;;;;11.27;4.32;;;8.10;54.90;;;;;;7552965;23;20397;-68
2023/11/27 01:11:48;;;;;;;6.50;4.15;;;8.20;54.30;;;;;;7550512;23;20783;-69
2023/11/27 01:14:48;;;;;;;15.38;5.03;;;8.10;54.30;;;;;;7527022;23;20018;-69
2023/11/27 01:17:51;;;;;;;13.85;4.43;;;8.10;54.40;;;;;;7553032;23;20057;-69
2023/11/27 01:20:53;;;;;;;7.70;3.47;;;8.10;54.40;;;;;;7480625;23;20021;-67
2023/11/27 01:23:53;;;;;;;12.27;6.47;;;8.10;54.50;;;;;;7550178;23;20034;-69
2023/11/27 01:26:54;;;;;;;20.98;6.22;;;8.10;54.50;;;;;;7527181;23;20472;-69
2023/11/27 01:29:56;;;;;;;5.25;3.65;;;8.10;54.50;;;;;;7550336;23;20014;-68
2023/11/27 01:32:56;;;;;;;13.68;5.78;;;8.10;54.70;;;;;;7502484;23;20018;-69
2023/11/27 01:35:58;;;;;;;13.93;6.03;;;8.10;54.90;;;;;;7526044;23;20081;-69
2023/11/27 01:38:58;;;;;;;13.27;5.63;;;8.10;55.00;;;;;;7526827;23;20054;-69
2023/11/27 01:41:59;;;;;;;16.33;5.93;;;8.10;55.20;;;;;;7552263;23;20365;-69
2023/11/27 01:45:00;;;;;;;9.70;6.15;;;8.10;55.30;;;;;;7527067;23;20006;-68
2023/11/27 01:48:01;;;;;;;17.70;5.95;;;8.00;55.40;;;;;;7552106;23;20016;-68
2023/11/27 01:51:02;;;;;;;11.52;5.40;;;8.00;55.40;;;;;;7551600;23;20010;-68
2023/11/27 01:54:03;;;;;;;12.63;6.28;;;8.00;55.50;;;;;;7524753;23;20014;-68
2023/11/27 01:57:05;;;;;;;17.65;6.68;;;8.00;55.50;;;;;;7502508;23;20042;-67
2023/11/27 02:00:07;;;;;;;14.82;7.25;;;8.00;55.70;;;;;;7529068;23;20098;-68
2023/11/27 02:03:17;;;;;;;10.52;5.15;;;7.90;55.80;;;;;;7528748;23;20002;-68
2023/11/27 02:06:18;;;;;;;12.48;6.90;;;7.90;56.00;;;;;;7529181;23;20025;-69
2023/11/27 02:09:19;;;;;;;9.95;5.28;;;7.80;56.00;;;;;;7527765;23;20082;-68
2023/11/27 02:12:21;;;;;;;9.45;4.80;;;7.80;56.10;;;;;;7528791;23;20046;-69
2023/11/27 02:15:22;;;;;;;17.80;6.18;;;7.80;56.10;;;;;;7505094;23;20089;-68
2023/11/27 02:18:23;;;;;;;11.77;6.55;;;7.70;56.20;;;;;;7552978;23;20022;-69
2023/11/27 02:21:24;;;;;;;15.35;5.32;;;7.70;56.30;;;;;;7555362;23;20061;-68
2023/11/27 02:24:25;;;;;;;16.27;7.38;;;7.70;56.40;;;;;;7554483;23;20002;-68
2023/11/27 02:27:26;;;;;;;11.68;5.50;;;7.70;56.50;;;;;;7528182;23;20017;-69
2023/11/27 02:30:27;;;;;;;12.00;6.03;;;7.60;56.50;;;;;;7554808;23;20015;-69
2023/11/27 02:33:27;;;;;;;9.57;5.63;;;7.60;56.60;;;;;;7528841;23;20015;-69
2023/11/27 02:36:38;;;;;;;15.35;7.40;;;7.60;56.60;;;;;;7552489;23;20444;-69
2023/11/27 02:39:39;;;;;;;12.32;5.20;;;7.50;56.70;;;;;;7554782;23;20014;-69
2023/11/27 02:42:40;;;;;;;14.80;4.90;;;7.60;56.70;;;;;;7554462;23;20017;-69
2023/11/27 02:45:41;;;;;;;10.70;6.00;;;7.60;56.60;;;;;;7481736;23;20345;-68
2023/11/27 02:48:43;;;;;;;10.65;6.00;;;7.50;56.60;;;;;;7552242;23;20010;-68
2023/11/27 02:51:43;;;;;;;16.23;5.10;;;7.50;56.60;;;;;;7527796;23;20110;-69
2023/11/27 02:54:44;;;;;;;8.75;5.63;;;7.40;56.60;;;;;;7553417;23;20037;-69
2023/11/27 02:57:48;;;;;;;8.23;4.50;;;7.40;56.70;;;;;;7527932;23;20400;-68
2023/11/27 03:00:49;;;;;;;10.82;5.82;;;7.40;56.70;;;;;;7554016;23;20014;-68
2023/11/27 03:03:50;;;;;;;10.45;5.40;;;7.40;56.80;;;;;;7527666;23;20408;-69
2023/11/27 03:06:51;;;;;;;14.10;6.05;;;7.40;56.80;;;;;;7553748;23;20105;-69
2023/11/27 03:09:52;;;;;;;16.10;6.20;;;7.40;56.80;;;;;;7554256;23;20002;-69
2023/11/27 03:12:53;;;;;;;11.18;5.15;;;7.40;56.80;;;;;;7554036;23;20540;-68
2023/11/27 03:15:54;;;;;;;10.82;5.68;;;7.40;56.90;;;;;;7527830;23;20126;-68
2023/11/27 03:18:56;;;;;;;9.13;5.57;;;7.40;57.10;;;;;;7554149;23;20324;-69
2023/11/27 03:21:56;;;;;;;11.48;4.47;;;7.30;57.10;;;;;;7527921;23;20507;-68
2023/11/27 03:24:57;;;;;;;10.65;4.95;;;7.30;57.30;;;;;;7553505;23;20017;-69
2023/11/27 03:27:58;;;;;;;10.60;6.50;;;7.20;57.40;;;;;;7527736;23;20026;-68
2023/11/27 03:30:59;;;;;;;10.98;5.93;;;7.20;57.50;;;;;;7551684;23;20029;-67
2023/11/27 03:34:00;;;;;;;12.27;5.05;;;7.20;57.60;;;;;;7553760;23;20033;-70
2023/11/27 03:37:01;;;;;;;11.20;6.00;;;7.20;57.60;;;;;;7526912;23;20360;-68
2023/11/27 03:40:03;;;;;;;10.07;6.18;;;7.20;57.60;;;;;;7527773;23;20382;-69
2023/11/27 03:43:03;;;;;;;13.18;4.65;;;7.20;57.70;;;;;;7552389;23;20018;-69
2023/11/27 03:46:05;;;;;;;10.65;6.18;;;7.20;57.70;;;;;;7528126;23;20077;-69
2023/11/27 03:49:06;;;;;;;11.48;6.13;;;7.20;57.70;;;;;;7527509;23;20010;-68
2023/11/27 03:52:07;;;;;;;10.35;5.82;;;7.30;57.70;;;;;;7552461;23;20484;-69
2023/11/27 03:55:09;;;;;;;12.48;5.57;;;7.30;57.70;;;;;;7553475;23;20014;-71
2023/11/27 03:58:12;;;;;;;15.23;6.13;;;7.30;57.50;;;;;;7503368;23;20006;-69
2023/11/27 04:01:13;;;;;;;11.38;5.20;;;7.30;57.50;;;;;;7503946;23;20014;-69
2023/11/27 04:04:14;;;;;;;8.23;4.82;;;7.30;57.40;;;;;;7528116;23;20010;-69
2023/11/27 04:07:15;;;;;;;20.23;5.90;;;7.30;57.50;;;;;;7527164;23;20029;-68
2023/11/27 04:10:18;;;;;;;11.57;4.95;;;7.30;58.10;;;;;;7553497;23;20002;-69
2023/11/27 04:13:19;;;;;;;11.27;5.90;;;7.30;57.60;;;;;;7550940;23;20028;-69
2023/11/27 04:16:22;;;;;;;7.63;4.43;;;7.30;57.80;;;;;;7480826;23;20046;-69
2023/11/27 04:19:23;;;;;;;6.53;4.63;;;7.30;57.90;;;;;;7549586;23;20410;-68
2023/11/27 04:22:24;;;;;;;11.02;5.57;;;7.30;58.00;;;;;;7502878;23;20013;-69
2023/11/27 04:25:25;;;;;;;12.88;5.47;;;7.30;58.00;;;;;;7550534;23;20029;-68
2023/11/27 04:28:26;;;;;;;10.93;5.60;;;7.30;58.10;;;;;;7552702;23;20018;-68
2023/11/27 04:31:28;;;;;;;10.73;5.22;;;7.30;58.10;;;;;;7552597;23;20115;-69
2023/11/27 04:34:29;;;;;;;5.95;3.85;;;7.30;58.10;;;;;;7526651;23;20015;-68
2023/11/27 04:37:30;;;;;;;15.15;5.53;;;7.20;58.10;;;;;;7525976;23;20011;-68
2023/11/27 04:40:31;;;;;;;13.10;6.55;;;7.20;58.10;;;;;;7552473;23;20041;-68
2023/11/27 04:43:32;;;;;;;8.98;4.85;;;7.30;58.20;;;;;;7553435;23;20010;-68
2023/11/27 04:46:33;;;;;;;9.88;4.95;;;7.30;58.20;;;;;;7553734;23;20398;-67
2023/11/27 04:49:34;;;;;;;13.32;5.53;;;7.20;58.00;;;;;;7552593;23;20094;-68
2023/11/27 04:52:34;;;;;;;8.25;4.70;;;7.30;58.00;;;;;;7502699;23;20105;-68
2023/11/27 04:55:35;;;;;;;8.38;5.10;;;7.30;58.10;;;;;;7552357;23;20364;-68
2023/11/27 04:58:36;;;;;;;17.27;4.97;;;7.30;58.00;;;;;;7525753;23;20010;-70
2023/11/27 05:01:37;;;;;;;19.27;7.43;;;7.30;58.00;;;;;;7502978;23;20010;-70
2023/11/27 05:04:39;;;;;;;8.90;4.50;;;7.30;58.00;;;;;;7527804;23;20620;-67
2023/11/27 05:07:40;;;;;;;15.43;6.00;;;7.30;58.00;;;;;;7526404;23;20105;-68
2023/11/27 05:10:41;;;;;;;8.38;4.63;;;7.30;58.00;;;;;;7552208;23;20006;-69
2023/11/27 05:13:41;;;;;;;23.60;5.68;;;7.30;57.90;;;;;;7552023;23;20010;-68
2023/11/27 05:16:42;;;;;;;11.68;5.32;;;7.30;58.00;;;;;;7502976;23;20014;-67
2023/11/27 05:19:43;;;;;;;7.50;5.03;;;7.30;57.90;;;;;;7502069;23;20010;-67
2023/11/27 05:22:44;;;;;;;11.60;4.30;;;7.40;57.80;;;;;;7525875;23;20002;-68
2023/11/27 05:25:45;;;;;;;14.05;4.07;;;7.40;57.60;;;;;;7502339;23;20584;-68
2023/11/27 05:28:45;;;;;;;8.70;5.70;;;7.40;57.50;;;;;;7552589;23;20013;-67
2023/11/27 05:31:46;;;;;;;9.93;5.68;;;7.50;57.40;;;;;;7526657;23;20104;-68
2023/11/27 05:34:47;;;;;;;11.15;6.40;;;7.50;57.20;;;;;;7525953;23;20473;-67
2023/11/27 05:37:48;;;;;;;12.35;7.55;;;7.40;57.10;;;;;;7551984;23;20337;-70
2023/11/27 05:40:52;;;;;;;13.73;7.53;;;7.40;57.20;;;;;;7526129;23;20473;-69
2023/11/27 05:43:53;;;;;;;10.60;6.28;;;7.40;57.30;;;;;;7552009;23;20017;-68
2023/11/27 05:46:54;;;;;;;9.45;5.20;;;7.30;57.50;;;;;;7526549;23;20007;-69
2023/11/27 05:49:55;;;;;;;14.65;6.47;;;7.40;57.60;;;;;;7526113;23;20429;-68
2023/11/27 05:52:58;;;;;;;7.78;5.07;;;7.40;57.70;;;;;;7526425;23;20523;-69
2023/11/27 05:55:59;;;;;;;10.02;5.15;;;7.40;57.70;;;;;;7552605;23;20098;-69
2023/11/27 05:58:59;;;;;;;10.10;5.68;;;7.40;57.80;;;;;;7552024;23;20510;-68
2023/11/27 06:02:00;;;;;;;12.57;5.95;;;7.40;57.70;;;;;;7551863;23;20025;-69
2023/11/27 06:05:01;;;;;;;10.82;4.50;;;7.40;57.70;;;;;;7552997;23;20012;-69
2023/11/27 06:08:03;;;;;;;8.90;5.95;;;7.40;57.70;;;;;;7552883;23;20013;-68
2023/11/27 06:11:04;;;;;;;14.40;5.22;;;7.30;57.60;;;;;;7552289;23;20010;-68
2023/11/27 06:14:05;;;;;;;8.13;4.60;;;7.30;57.70;;;;;;7526325;23;20014;-68
2023/11/27 06:17:06;;;;;;;11.98;5.55;;;7.30;57.80;;;;;;7526760;23;20393;-68
2023/11/27 06:20:14;;;;;;;10.18;4.25;;;7.20;57.90;;;;;;7552524;23;20082;-69
2023/11/27 06:23:15;;;;;;;12.83;5.50;;;7.20;58.00;;;;;;7527144;23;20577;-69
2023/11/27 06:26:16;;;;;;;11.85;4.63;;;7.20;58.10;;;;;;7553358;23;20013;-69
2023/11/27 06:29:17;;;;;;;14.48;5.00;;;7.30;58.20;;;;;;7553297;23;20033;-70
2023/11/27 06:32:20;;;;;;;11.45;5.07;;;7.30;58.20;;;;;;7527032;23;20015;-68
2023/11/27 06:35:21;;;;;;;19.65;5.53;;;7.30;58.30;;;;;;7526944;23;20101;-71
2023/11/27 06:38:22;;;;;;;12.13;5.50;;;7.30;58.40;;;;;;7526605;23;20454;-70
2023/11/27 06:41:25;;;;;;;8.50;4.63;;;7.20;58.40;;;;;;7552609;23;20018;-68
2023/11/27 06:44:25;;;;;;;8.27;4.13;;;7.20;58.50;;;;;;7553263;23;20003;-70
2023/11/27 06:47:27;;;;;;;10.82;4.68;;;7.20;58.60;;;;;;7556154;23;20089;-70
2023/11/27 06:50:28;;;;;;;7.22;5.15;;;7.20;58.60;;;;;;7529810;23;20321;-70
2023/11/27 06:53:29;;;;;;;8.73;5.38;;;7.20;58.60;;;;;;7555372;23;20014;-69
2023/11/27 06:56:33;;;;;;;10.10;4.90;;;7.10;58.50;;;;;;7528603;23;20018;-70
2023/11/27 06:59:38;;;;;;;8.25;4.45;;;7.20;58.60;;;;;;7554877;23;20010;-71
2023/11/27 07:02:40;;;;;;;7.20;4.78;;;7.30;58.50;;;;;;7529440;23;20075;-70
2023/11/27 07:05:40;;;;;;;9.95;5.13;;;7.30;58.40;;;;;;7530485;23;20006;-71
2023/11/27 07:08:42;;;;;;;15.23;4.38;;;7.30;58.30;;;;;;7554111;23;20006;-70
2023/11/27 07:11:46;;;;;;;10.18;4.35;;;7.40;58.30;;;;;;7529239;23;20089;-70
2023/11/27 07:14:48;;;;;;;10.13;4.20;;;7.40;58.30;;;;;;7554850;23;20457;-69
2023/11/27 07:17:49;;;;;;;12.15;3.25;;;7.40;58.20;;;;;;7555148;23;20086;-69
2023/11/27 07:20:50;;;;;;;7.68;4.47;;;7.40;58.00;;;;;;7527955;23;20306;-69
2023/11/27 07:23:57;;;;;;;16.02;5.47;;;7.40;58.00;;;;;;7554454;23;20104;-68
2023/11/27 07:26:58;;;;;;;9.73;4.63;;;7.40;57.90;;;;;;7554806;23;20067;-70
2023/11/27 07:30:01;;;;;;;9.80;4.20;;;7.40;57.90;;;;;;7504902;23;20075;-69
2023/11/27 07:33:02;;;;;;;7.95;4.72;;;7.40;57.90;;;;;;7528268;23;20011;-68
2023/11/27 07:36:06;;;;;;;6.50;4.10;;;7.50;57.80;;;;;;7528671;23;20073;-69
2023/11/27 07:39:13;;;;;;;8.98;4.45;;;7.50;57.70;;;;;;7504676;23;20015;-69
2023/11/27 07:42:14;;;;;;;11.38;3.78;;;7.60;57.60;;;;;;7554248;23;20077;-69
2023/11/27 07:45:15;;;;;;;18.88;7.80;;;7.60;57.40;;;;;;7554434;23;20010;-71
2023/11/27 07:48:16;;;;;;;9.05;4.47;;;7.60;57.30;;;;;;7528401;23;20302;-71
2023/11/27 07:51:17;;;;;;;8.75;4.57;;;7.70;57.20;;;;;;7528923;23;20014;-68
2023/11/27 07:54:19;;;;;;;10.15;5.65;;;7.70;57.20;;;;;;7527441;23;20010;-70
2023/11/27 07:57:20;;;;;;;8.93;4.97;;;7.80;57.10;;;;;;7554356;23;20109;-68
2023/11/27 08:00:26;;;;;;;21.23;5.60;;;7.90;57.10;;;;;;7529684;23;20089;-69
2023/11/27 08:03:27;;;;;;;6.13;3.60;;;8.00;56.90;;;;;;7527154;23;20029;-69
2023/11/27 08:06:27;;;;;;;9.77;4.80;;;8.10;56.80;;;;;;7527905;23;20085;-69
2023/11/27 08:09:28;;;;;;;14.80;6.13;;;8.20;56.80;;;;;;7553676;23;20014;-69
2023/11/27 08:12:29;;;;;;;12.43;3.97;;;8.30;56.60;;;;;;7528116;23;20018;-70
2023/11/27 08:15:30;;;;;;;18.60;5.00;;;8.40;56.30;;;;;;7505175;23;20017;-70
2023/11/27 08:18:31;;;;;;;10.02;4.85;;;8.40;56.00;;;;;;7528000;23;20050;-69
2023/11/27 08:21:35;;;;;;;14.93;5.32;;;8.40;55.60;;;;;;7504063;23;20021;-70
2023/11/27 08:24:35;;;;;;;20.60;8.50;;;8.40;55.50;;;;;;7553117;23;20010;-68
2023/11/27 08:27:39;;;;;;;14.38;6.50;;;8.50;55.50;;;;;;7527739;23;20013;-69
2023/11/27 08:30:41;;;;;;;23.27;6.60;;;8.60;55.50;;;;;;7527985;23;20025;-69
2023/11/27 08:33:42;;;;;;;14.77;4.85;;;8.70;55.30;;;;;;7553776;23;20002;-69
2023/11/27 08:36:43;;;;;;;8.05;4.95;;;8.80;55.10;;;;;;7527692;23;20420;-69
2023/11/27 08:39:44;;;;;;;9.35;5.10;;;8.90;54.90;;;;;;7551549;23;20385;-70
2023/11/27 08:42:45;;;;;;;7.30;4.07;;;9.00;54.80;;;;;;7527134;23;20417;-69
2023/11/27 08:45:46;;;;;;;19.73;5.18;;;9.00;54.40;;;;;;7504405;23;20010;-70
2023/11/27 08:48:47;;;;;;;6.60;4.05;;;9.10;54.20;;;;;;7528207;23;20066;-69
2023/11/27 08:51:47;;;;;;;13.40;4.55;;;9.10;53.90;;;;;;7553833;23;20006;-69
2023/11/27 08:54:49;;;;;;;12.13;4.80;;;9.20;53.70;;;;;;7554231;23;20437;-69
2023/11/27 08:57:49;;;;;;;12.90;4.53;;;9.30;53.60;;;;;;7528291;23;20416;-71
2023/11/27 09:00:51;;;;;;;15.20;4.55;;;9.40;53.40;;;;;;7554003;23;20006;-69
2023/11/27 09:03:52;;;;;;;14.85;5.28;;;9.50;53.20;;;;;;7528195;23;20007;-70
2023/11/27 09:06:52;;;;;;;14.13;5.78;;;9.60;52.90;;;;;;7527489;23;20010;-68
2023/11/27 09:09:53;;;;;;;10.90;5.20;;;9.60;52.90;;;;;;7553246;23;20319;-69
2023/11/27 09:12:55;;;;;;;12.25;5.55;;;9.70;52.90;;;;;;7527163;23;20076;-68
2023/11/27 09:15:56;;;;;;;6.43;3.15;;;9.80;52.80;;;;;;7527237;23;20101;-69
2023/11/27 09:18:57;;;;;;;8.15;3.05;;;9.90;52.30;;;;;;7527614;23;20143;-69
2023/11/27 09:21:59;;;;;;;9.52;3.83;;;9.90;52.10;;;;;;7553240;23;20046;-69
2023/11/27 09:25:00;;;;;;;7.00;3.58;;;9.90;51.70;;;;;;7527426;23;20002;-69
2023/11/27 09:28:01;;;;;;;4.40;3.00;;;9.90;51.70;;;;;;7526722;23;20017;-70
2023/11/27 09:31:01;;;;;;;5.50;3.80;;;9.90;51.40;;;;;;7552779;23;20006;-68
2023/11/27 09:34:02;;;;;;;8.40;3.45;;;9.90;51.60;;;;;;7552697;23;20025;-69
2023/11/27 09:37:05;;;;;;;8.40;3.25;;;9.80;51.40;;;;;;7527609;23;20041;-68
2023/11/27 09:40:08;;;;;;;10.10;4.35;;;9.80;51.30;;;;;;7502692;23;20041;-70
2023/11/27 09:43:09;;;;;;;7.30;4.07;;;9.80;51.40;;;;;;7552177;23;20046;-69
2023/11/27 09:46:18;;;;;;;9.13;3.42;;;9.80;51.60;;;;;;7552279;23;20093;-69
2023/11/27 09:49:24;;;;;;;18.83;6.50;;;9.90;51.70;;;;;;7552257;23;20022;-69
2023/11/27 09:52:35;;;;;;;13.68;4.90;;;9.90;51.20;;;;;;7553194;23;20017;-69
2023/11/27 09:55:38;;;;;;;10.05;3.53;;;9.90;50.90;;;;;;7554277;23;20002;-68
2023/11/27 09:58:42;;;;;;;12.45;3.83;;;9.80;50.80;;;;;;7553877;23;20038;-69
2023/11/27 10:01:43;;;;;;;14.65;4.00;;;9.90;51.00;;;;;;7554171;23;20248;-69
2023/11/27 10:04:46;;;;;;;10.70;3.85;;;9.90;51.00;;;;;;7528139;23;20013;-69
2023/11/27 10:07:53;;;;;;;7.43;3.70;;;10.00;50.90;;;;;;7554645;23;20113;-68
2023/11/27 10:10:56;;;;;;;15.23;5.05;;;10.00;50.40;;;;;;7554025;23;20014;-68
2023/11/27 10:13:56;;;;;;;5.18;2.75;;;10.10;50.30;;;;;;7503010;23;20017;-68
2023/11/27 10:16:59;;;;;;;5.85;2.47;;;10.10;50.10;;;;;;7527383;23;20045;-69
2023/11/27 10:20:00;;;;;;;13.63;4.90;;;10.20;50.10;;;;;;7527955;23;20402;-69
2023/11/27 10:23:10;;;;;;;6.40;3.15;;;10.10;50.10;;;;;;7556309;23;20011;-70
2023/11/27 10:26:13;;;;;;;14.38;5.38;;;10.10;49.90;;;;;;7529210;23;20003;-69
2023/11/27 10:29:36;;;;;;;12.25;5.15;;;10.20;50.00;;;;;;7555885;23;20030;-68
2023/11/27 10:32:37;;;;;;;13.95;4.90;;;10.20;49.90;;;;;;7552029;23;20117;-68
2023/11/27 10:35:41;;;;;;;14.35;4.53;;;10.20;49.90;;;;;;7553992;23;20144;-68
2023/11/27 10:38:42;;;;;;;17.27;5.82;;;10.30;50.10;;;;;;7555931;23;20089;-68
2023/11/27 10:41:47;;;;;;;11.32;3.92;;;10.30;50.10;;;;;;7555337;23;20003;-69
2023/11/27 10:44:50;;;;;;;12.98;3.60;;;10.30;50.20;;;;;;7555634;23;20010;-68
2023/11/27 10:47:56;;;;;;;10.38;4.13;;;10.30;50.40;;;;;;7555791;23;20006;-69
2023/11/27 10:51:03;;;;;;;15.48;5.10;;;10.20;50.50;;;;;;7554225;23;20025;-69
2023/11/27 10:54:04;;;;;;;14.90;6.53;;;10.00;50.60;;;;;;7504610;23;20129;-70
2023/11/27 10:57:08;;;;;;;13.10;4.50;;;10.30;50.80;;;;;;7528970;23;20018;-70
2023/11/27 11:00:09;;;;;;;24.13;6.88;;;10.30;50.70;;;;;;7529503;23;20011;-71
2023/11/27 11:03:14;;;;;;;19.90;6.45;;;10.30;50.90;;;;;;7552305;23;20026;-70
2023/11/27 11:06:19;;;;;;;11.70;4.50;;;10.30;51.00;;;;;;7556345;23;20018;-72
2023/11/27 11:09:25;;;;;;;15.13;6.88;;;10.30;51.70;;;;;;7530216;23;20018;-70
2023/11/27 11:12:27;;;;;;;11.32;5.45;;;10.30;51.20;;;;;;7556287;23;20056;-71
2023/11/27 11:15:39;;;;;;;13.20;4.95;;;10.30;51.30;;;;;;7529936;23;20007;-70
2023/11/27 11:18:57;;;;;;;22.13;6.85;;;10.30;51.30;;;;;;7530178;23;20118;-70
2023/11/27 11:22:23;;;;;;;14.18;5.47;;;10.30;51.40;;;;;;7555046;23;20038;-71
2023/11/27 11:25:38;;;;;;;12.98;6.07;;;10.30;51.60;;;;;;7374935;24;20012;-69
2023/11/27 11:28:49;;;;;;;12.43;4.38;;;10.30;51.70;;;;;;7374544;24;20515;-68
2023/11/27 11:32:14;;;;;;;16.60;5.90;;;10.30;51.70;;;;;;7350915;24;20088;-70
2023/11/27 11:35:18;;;;;;;12.07;4.97;;;10.30;51.70;;;;;;7374225;24;20099;-70
2023/11/27 11:38:21;;;;;;;10.75;4.95;;;10.30;51.60;;;;;;7374881;24;20102;-71
2023/11/27 11:41:24;;;;;;;14.38;6.03;;;10.40;51.60;;;;;;7351605;24;20012;-70
2023/11/27 11:44:25;;;;;;;10.43;4.53;;;10.40;51.40;;;;;;7351128;24;20079;-69
2023/11/27 11:47:28;;;;;;;14.98;4.82;;;10.30;51.40;;;;;;7372986;24;20091;-68
2023/11/27 11:50:31;;;;;;;11.93;5.18;;;10.30;51.40;;;;;;7374151;24;20056;-68
2023/11/27 11:53:37;;;;;;;16.42;5.03;;;10.30;51.50;;;;;;7374170;24;20050;-69
2023/11/27 11:56:39;;;;;;;9.32;6.13;;;10.30;51.60;;;;;;7350391;24;20721;-69
2023/11/27 11:59:43;;;;;;;11.32;5.85;;;10.30;51.50;;;;;;7375597;24;20021;-70
2023/11/27 12:02:47;;;;;;;7.95;3.67;;;10.30;51.50;;;;;;7475100;23;20021;-68
2023/11/27 12:05:54;;;;;;;7.47;4.18;;;10.40;51.40;;;;;;7554547;23;20005;-70
2023/11/27 12:08:58;;;;;;;12.20;5.83;;;10.40;51.30;;;;;;7527846;23;20050;-69
2023/11/27 12:12:00;;;;;;;13.82;5.88;;;10.30;51.30;;;;;;7553457;23;20025;-68
2023/11/27 12:15:10;;;;;;;13.30;5.30;;;10.30;51.50;;;;;;7528241;23;20014;-69
2023/11/27 12:18:12;;;;;;;15.18;5.13;;;10.20;51.70;;;;;;7529145;23;20006;-69
2023/11/27 12:21:16;;;;;;;11.90;5.95;;;10.20;51.90;;;;;;7554578;23;20015;-70
2023/11/27 12:24:19;;;;;;;11.38;4.63;;;10.30;52.00;;;;;;7553380;23;20014;-69
2023/11/27 12:27:22;;;;;;;12.63;4.95;;;10.30;52.00;;;;;;7526980;23;20037;-68
2023/11/27 12:30:23;;;;;;;29.50;10.05;;;10.20;52.10;;;;;;7553906;23;20029;-70
2023/11/27 12:33:27;;;;;;;14.43;5.50;;;10.20;52.20;;;;;;7554412;23;20018;-69
2023/11/27 12:36:28;;;;;;;7.60;4.15;;;10.30;52.20;;;;;;7526574;23;20342;-69
2023/11/27 12:39:30;;;;;;;13.07;4.45;;;10.30;52.10;;;;;;7552508;23;20613;-69
2023/11/27 12:42:31;;;;;;;8.88;4.72;;;10.30;52.00;;;;;;7527636;23;20293;-68
2023/11/27 12:45:33;;;;;;;9.63;4.80;;;10.30;52.10;;;;;;7527092;23;20010;-69
2023/11/27 12:48:34;;;;;;;16.15;5.10;;;10.30;51.90;;;;;;7550907;23;20002;-70
2023/11/27 12:51:37;;;;;;;12.73;4.15;;;10.30;51.70;;;;;;7528105;23;20030;-69
2023/11/27 12:54:38;;;;;;;9.85;4.57;;;10.30;51.70;;;;;;7552915;23;20176;-69
2023/11/27 12:57:40;;;;;;;8.27;4.65;;;10.40;51.60;;;;;;7553482;23;20025;-68
2023/11/27 13:00:44;;;;;;;9.85;3.78;;;10.40;51.50;;;;;;7526968;23;20010;-68
2023/11/27 13:03:47;;;;;;;9.80;3.70;;;10.50;51.40;;;;;;7552535;23;20030;-70
2023/11/27 13:06:51;;;;;;;8.38;3.72;;;10.50;51.20;;;;;;7552473;23;20164;-68
2023/11/27 13:09:52;;;;;;;9.27;4.55;;;10.50;51.10;;;;;;7527544;23;20423;-71
2023/11/27 13:12:54;;;;;;;9.65;4.30;;;10.50;51.60;;;;;;7527654;23;20026;-68
2023/11/27 13:16:01;;;;;;;17.52;4.72;;;10.50;51.00;;;;;;7553504;23;20110;-69
2023/11/27 13:19:03;;;;;;;20.80;4.05;;;10.50;51.00;;;;;;7550564;23;20098;-69
2023/11/27 13:22:05;;;;;;;6.75;2.70;;;10.40;50.90;;;;;;7552928;23;20020;-70
2023/11/27 13:25:06;;;;;;;8.75;3.78;;;10.50;51.00;;;;;;7552106;23;20006;-69
2023/11/27 13:28:09;;;;;;;13.40;4.40;;;10.50;51.00;;;;;;7552967;23;20010;-71
2023/11/27 13:31:12;;;;;;;7.30;3.97;;;10.50;51.00;;;;;;7527691;23;20019;-70
2023/11/27 13:37:34;;;;;;;16.95;5.32;;;10.50;51.10;;;;;;7531264;23;20599;-70
2023/11/27 13:40:35;;;;;;;9.45;5.28;;;10.50;51.40;;;;;;7552729;23;20018;-69
2023/11/27 13:43:36;;;;;;;11.02;4.93;;;10.50;51.60;;;;;;7527353;23;20021;-68
2023/11/27 13:46:40;;;;;;;12.90;4.88;;;10.50;51.90;;;;;;7503189;23;20329;-68
2023/11/27 13:49:41;;;;;;;12.05;4.68;;;10.40;52.10;;;;;;7552576;23;20034;-67
2023/11/27 13:52:42;;;;;;;10.80;4.75;;;10.40;52.30;;;;;;7527852;23;20089;-68
2023/11/27 13:55:46;;;;;;;8.65;4.55;;;10.40;52.60;;;;;;7527079;23;20010;-69
2023/11/27 13:58:55;;;;;;;36.30;5.63;;;10.30;52.90;;;;;;7552851;23;20029;-69
2023/11/27 14:01:57;;;;;;;14.63;4.47;;;10.30;53.10;;;;;;7529199;23;20010;-69
2023/11/27 14:05:07;;;;;;;11.95;5.68;;;10.30;53.20;;;;;;7552856;23;20525;-70
2023/11/27 14:08:14;;;;;;;12.82;6.45;;;10.30;53.40;;;;;;7553535;23;20007;-68
2023/11/27 14:11:32;;;;;;;11.20;5.22;;;10.30;53.60;;;;;;7553361;23;20044;-69
2023/11/27 14:14:34;;;;;;;12.07;5.22;;;10.20;53.80;;;;;;7552911;23;20164;-69
2023/11/27 14:17:37;;;;;;;17.70;6.07;;;10.20;53.90;;;;;;7526606;23;20026;-69
2023/11/27 14:23:59;;;;;;;15.93;5.20;;;10.20;54.40;;;;;;7551912;23;20014;-70
2023/11/27 14:30:22;;;;;;;16.67;5.85;;;10.10;54.70;;;;;;7550542;23;20460;-69
2023/11/27 14:33:24;;;;;;;17.42;6.93;;;10.20;55.00;;;;;;7527205;23;20034;-69
2023/11/27 14:36:26;;;;;;;12.23;5.30;;;10.20;55.10;;;;;;7552814;23;20534;-69
2023/11/27 14:39:32;;;;;;;14.15;6.00;;;10.20;55.30;;;;;;7526407;23;20077;-70
2023/11/27 14:42:33;;;;;;;11.23;5.20;;;10.20;55.30;;;;;;7553167;23;20013;-68
2023/11/27 14:45:42;;;;;;;12.00;5.72;;;10.20;55.50;;;;;;7527784;23;20014;-68
2023/11/27 14:48:44;;;;;;;14.57;6.63;;;10.10;55.70;;;;;;7552811;23;20094;-68
2023/11/27 14:51:46;;;;;;;18.20;6.70;;;10.00;56.10;;;;;;7552513;23;20009;-69
2023/11/27 14:54:46;;;;;;;9.43;5.40;;;10.00;56.40;;;;;;7553032;23;20014;-71
2023/11/27 14:57:48;;;;;;;14.82;5.45;;;10.00;56.50;;;;;;7526767;23;20025;-71
2023/11/27 15:00:51;;;;;;;9.38;5.13;;;9.90;56.60;;;;;;7526407;23;20074;-71
2023/11/27 15:03:56;;;;;;;10.57;4.72;;;9.90;56.70;;;;;;7528190;23;20010;-70
2023/11/27 15:06:57;;;;;;;12.70;5.05;;;9.90;56.70;;;;;;7553857;23;20006;-71
2023/11/27 15:09:57;;;;;;;14.48;4.18;;;10.00;56.60;;;;;;7553934;23;20011;-70
2023/11/27 15:12:58;;;;;;;16.95;4.90;;;10.00;56.50;;;;;;7554594;23;20118;-71
2023/11/27 15:16:01;;;;;;;11.30;4.75;;;10.00;56.50;;;;;;7529965;23;20617;-68
2023/11/27 15:19:03;;;;;;;10.98;5.65;;;10.00;56.50;;;;;;7528964;23;20763;-70
2023/11/27 15:22:05;;;;;;;11.00;4.25;;;9.90;56.40;;;;;;7528562;23;20006;-70
2023/11/27 15:25:08;;;;;;;15.40;4.53;;;9.90;56.50;;;;;;7552308;23;20453;-70
2023/11/27 15:28:09;;;;;;;9.30;5.03;;;10.00;56.60;;;;;;7527818;23;20450;-71
2023/11/27 15:31:15;;;;;;;9.88;4.53;;;10.00;56.50;;;;;;7528990;23;20094;-69
2023/11/27 15:34:17;;;;;;;7.93;3.10;;;10.00;56.40;;;;;;7554170;23;20149;-70
2023/11/27 15:37:23;;;;;;;9.60;3.58;;;10.00;56.10;;;;;;7492797;23;20312;-70
2023/11/27 15:40:28;;;;;;;8.70;4.38;;;10.00;56.00;;;;;;7519667;23;20033;-69
2023/11/27 15:43:30;;;;;;;13.00;5.10;;;9.90;56.30;;;;;;7518496;23;20050;-69
2023/11/27 15:46:31;;;;;;;11.35;3.47;;;9.90;56.10;;;;;;7518247;23;20639;-69
2023/11/27 15:49:33;;;;;;;10.05;3.85;;;9.90;56.20;;;;;;7493542;23;20036;-70
2023/11/27 15:52:35;;;;;;;9.32;3.42;;;9.80;56.20;;;;;;7519354;23;20121;-70
2023/11/27 15:55:36;;;;;;;8.18;3.83;;;9.80;56.10;;;;;;7493668;23;20007;-71
2023/11/27 15:58:38;;;;;;;14.93;5.60;;;9.80;56.10;;;;;;7493269;23;20057;-71